• Join FlightAware (Why Join?)
  • Login
  • US Flag 
05:28PM EDT


 

Airport Tracker/Info


-or-


 

Live Flight TrackerFlight Track Log ✈ TAM3105 ✈ 19-May-2013 ✈ SBSP / CGH - SBFL / FLN

Flight Track Log - Related Links

Times and Time Zones

All times are in EDT time to prevent confusion due to time zone crossing. See the TAM3105 flight status page for this flight to view local times or setup timezone preferences in your user account.

Time Position Orientation Groundspeed Altitude Reporting Facility
EDT Latitude Longitude Course Direction KTS MPH feet Rate Location/Type
08:46PM -23.6410 -46.6460 149° Southeast 154 177 3,000  Level FlightAware
08:46PM -23.6520 -46.6420 162° South 169 194 3,500 1,440 Climbing FlightAware
08:46PM -23.6750 -46.6680 226° Southwest 222 255 4,100 1,380 Climbing FlightAware
08:47PM -23.6800 -46.6970 259° West 255 293 4,800 2,160 Climbing FlightAware
08:47PM -23.6900 -46.7350 254° West 266 306 6,100 2,700 Climbing FlightAware
08:48PM -23.7110 -46.7620 230° Southwest 273 314 7,300 2,760 Climbing FlightAware
08:48PM -23.7310 -46.7880 230° Southwest 280 322 8,400 2,820 Climbing FlightAware
08:49PM -23.7560 -46.8210 230° Southwest 283 326 9,900 2,040 Climbing FlightAware
08:49PM -23.7970 -46.8750 230° Southwest 328 377 11,000 1,800 Climbing FlightAware
08:50PM -23.8380 -46.9270 229° Southwest 341 392 12,500 2,220 Climbing FlightAware
08:51PM -23.8790 -46.9800 230° Southwest 352 405 14,000 2,280 Climbing FlightAware
08:51PM -23.9250 -47.0410 230° Southwest 354 407 15,800 2,100 Climbing FlightAware
08:52PM -23.9740 -47.1040 230° Southwest 363 418 17,200 1,800 Climbing FlightAware
08:53PM -24.0180 -47.1620 230° Southwest 370 426 18,400 1,500 Climbing FlightAware
08:54PM -24.0600 -47.2170 230° Southwest 380 437 19,200 1,440 Climbing FlightAware
08:54PM -24.1130 -47.2850 229° Southwest 384 442 20,500 1,620 Climbing FlightAware
08:55PM -24.1630 -47.3410 226° Southwest 396 456 21,500 1,740 Climbing FlightAware
08:55PM -24.1900 -47.3550 205° Southwest 400 460 22,100 1,680 Climbing FlightAware
08:56PM -24.2800 -47.3860 197° South 400 460 23,500 1,440 Climbing FlightAware
08:57PM -24.3570 -47.4130 198° South 407 468 24,400 1,200 Climbing FlightAware
08:58PM -24.4360 -47.4400 197° South 416 479 25,200 1,020 Climbing FlightAware
08:58PM -24.5160 -47.4680 198° South 426 490 25,900 960 Climbing FlightAware
08:59PM -24.5880 -47.4930 198° South 432 497 26,500 1,080 Climbing FlightAware
09:00PM -24.6940 -47.5290 197° South 435 501 27,700 1,020 Climbing FlightAware
09:00PM -24.7610 -47.5530 198° South 439 505 28,200 900 Climbing FlightAware
09:01PM -24.8590 -47.5870 197° South 446 513 28,900 1,200 Climbing FlightAware
09:02PM -24.9340 -47.6120 197° South 437 503 30,000 1,680 Climbing FlightAware
09:03PM -25.0130 -47.6400 198° South 424 488 31,300 1,500 Climbing FlightAware
09:03PM -25.0780 -47.6620 197° South 420 483 31,900 420 Climbing FlightAware
09:04PM -25.1970 -47.7040 198° South 421 484 32,000  Climbing FlightAware
09:05PM -25.2950 -47.7380 197° South 429 494 32,000  Level FlightAware
09:06PM -25.3800 -47.7690 198° South 425 489 32,000  Level FlightAware
09:07PM -25.4640 -47.7940 195° South 432 497 32,000  Level FlightAware
09:08PM -25.5700 -47.8170 191° South 429 494 32,000  Level FlightAware
09:08PM -25.6380 -47.8320 191° South 425 489 32,000  Level FlightAware
09:09PM -25.7320 -47.8520 191° South 426 490 32,000  Level FlightAware
09:10PM -25.8090 -47.8680 191° South 418 481 32,000  Level FlightAware
09:10PM -25.8860 -47.8850 191° South 419 482 32,000  Level FlightAware
09:11PM -25.9810 -47.9060 191° South 416 479 32,000  Level FlightAware
09:12PM -26.0540 -47.9220 191° South 418 481 32,000 -120 Level FlightAware
09:12PM -26.1390 -47.9400 191° South 415 478 31,900 -1,080 Descending FlightAware
09:13PM -26.2140 -47.9560 191° South 407 468 30,500 -1,440 Descending FlightAware
09:14PM -26.3000 -47.9750 191° South 420 483 29,900 -360 Descending FlightAware
09:15PM -26.3790 -47.9920 191° South 419 482 30,000 -1,500 Climbing FlightAware
09:15PM -26.4530 -48.0080 191° South 437 503 27,900 -3,480 Descending FlightAware
09:16PM -26.5470 -48.0290 191° South 439 505 25,100 -3,480 Descending FlightAware
09:17PM -26.6260 -48.0460 191° South 427 491 23,000 -2,880 Descending FlightAware
09:17PM -26.7100 -48.0640 191° South 415 478 21,100 -2,580 Descending FlightAware
09:18PM -26.7870 -48.0810 191° South 411 473 19,400 -2,580 Descending FlightAware
09:19PM -26.8610 -48.0970 191° South 407 468 17,700 -2,520 Descending FlightAware
09:19PM -26.9410 -48.1150 191° South 401 461 15,900 -2,940 Descending FlightAware
09:20PM -27.0140 -48.1440 199° South 395 455 13,600 -3,300 Descending FlightAware
09:21PM -27.0890 -48.1770 201° Southwest 391 450 11,300 -2,220 Descending FlightAware
09:21PM -27.1450 -48.2020 202° Southwest 357 411 10,700 -780 Descending FlightAware
09:22PM -27.2220 -48.2330 200° South 315 362 10,200 -660 Descending FlightAware
09:23PM -27.2540 -48.2390 189° South 302 348 9,900 -1,200 Descending FlightAware
09:23PM -27.2980 -48.2480 190° South 295 339 9,100 -1,560 Descending FlightAware
09:24PM -27.3200 -48.2530 191° South 292 336 8,600 -1,500 Descending FlightAware
09:24PM -27.3570 -48.2610 191° South 290 334 8,000 -1,440 Descending FlightAware
09:25PM -27.3950 -48.2710 193° South 285 328 7,200 -1,380 Descending FlightAware
09:25PM -27.4480 -48.2870 195° South 277 319 6,200 -1,620 Descending FlightAware
09:26PM -27.4900 -48.3000 195° South 278 320 5,200 -1,860 Descending FlightAware
09:26PM -27.5240 -48.3100 195° South 278 320 4,500 -1,560 Descending FlightAware
09:27PM -27.5600 -48.3160 188° South 273 314 3,800 -1,680 Descending FlightAware
09:27PM -27.6060 -48.3370 202° Southwest 265 305 2,600 -1,440 Descending FlightAware
09:28PM -27.6270 -48.3590 223° Southwest 251 289 2,300 -360 Descending FlightAware
09:28PM -27.6480 -48.3800 222° Southwest 251 289 2,300  Level FlightAware
09:30PM -27.3760 -48.2650 21° North 1,500 -540 Descending FlightAware
09:32PM -27.6740 -48.5360 219° Southwest 132 152 -600 Descending FlightAware
09:33PM -27.6670 -48.5500 299° West 132 152  Level FlightAware
09:35PM -27.6705 -48.5472 144° Southeast  Level Estimated
09:36PM -27.6705 -48.5472 318° Northwest  Level Estimated
09:37PM -27.6705 -48.5472 318° Northwest  Level Estimated
09:38PM -27.6705 -48.5472 318° Northwest  Level Estimated
09:39PM -27.6705 -48.5472 318° Northwest  Level Estimated
09:40PM -27.6705 -48.5472 318° Northwest  Level Estimated
09:41PM -27.6705 -48.5472 318° Northwest  Level Estimated
09:42PM -27.6705 -48.5472 318° Northwest  Level Estimated
09:43PM -27.6705 -48.5472 318° Northwest  Level Estimated
09:44PM -27.6705 -48.5472 318° Northwest  Level Estimated
09:45PM -27.6705 -48.5472 318° Northwest  Level Estimated
09:46PM -27.6705 -48.5472 318° Northwest  Level Estimated
09:47PM -27.6705 -48.5472 318° Northwest  Level Estimated
09:48PM -27.6705 -48.5472 318° Northwest  Level Estimated
09:49PM -27.6705 -48.5472 318° Northwest  Level Estimated
09:50PM -27.6705 -48.5472 318° Northwest  Level Estimated
09:51PM -27.6705 -48.5472 318° Northwest  Level Estimated
09:52PM -27.6705 -48.5472 318° Northwest  Level Estimated
09:53PM -27.6705 -48.5472 318° Northwest  Level Estimated
09:54PM -27.6705 -48.5472 318° Northwest  Level Estimated
09:55PM -27.6705 -48.5472 318° Northwest  Level Estimated
09:56PM -27.6705 -48.5472 318° Northwest  Level Estimated
09:57PM -27.6705 -48.5472 318° Northwest  Level Estimated
09:58PM -27.6705 -48.5472 318° Northwest  Level Estimated